createdAt,value
2022-08-19T00:05:02.613Z,13.00
2022-08-19T00:10:09.717Z,12.80
2022-08-19T00:15:17.142Z,18.50
2022-08-19T00:20:23.655Z,15.40
2022-08-19T00:25:30.147Z,11.90
2022-08-19T00:30:36.532Z,16.00
2022-08-19T00:35:41.958Z,12.20
2022-08-19T00:40:47.705Z,10.10
2022-08-19T00:45:53.267Z,12.30
2022-08-19T00:50:58.845Z,11.20
2022-08-19T00:56:07.402Z,12.60
2022-08-19T01:01:13.085Z,13.10
2022-08-19T01:06:19.982Z,12.60
2022-08-19T01:11:27.399Z,12.20
2022-08-19T01:16:34.009Z,10.00
2022-08-19T01:21:42.768Z,13.00
2022-08-19T01:26:49.869Z,11.10
2022-08-19T01:31:56.336Z,15.70
2022-08-19T01:37:03.120Z,13.90
2022-08-19T01:42:11.342Z,12.50
2022-08-19T01:47:17.262Z,13.30
2022-08-19T01:52:23.090Z,12.20
2022-08-19T01:57:28.770Z,11.90
2022-08-19T02:02:34.329Z,9.70
2022-08-19T02:07:41.219Z,13.60
2022-08-19T02:12:51.118Z,11.70
2022-08-19T02:17:57.731Z,12.60
2022-08-19T02:23:03.439Z,11.40
2022-08-19T02:28:09.545Z,11.30
2022-08-19T02:33:15.020Z,11.00
2022-08-19T02:38:29.974Z,14.20
2022-08-19T02:43:37.028Z,10.20
2022-08-19T02:48:42.677Z,13.80
2022-08-19T02:53:48.471Z,13.40
2022-08-19T02:58:53.859Z,12.30
2022-08-19T03:04:00.369Z,13.20
2022-08-19T03:09:06.146Z,11.50
2022-08-19T03:14:14.265Z,14.00
2022-08-19T03:19:22.367Z,11.10
2022-08-19T03:24:27.971Z,11.40
2022-08-19T03:29:34.672Z,13.60
2022-08-19T03:34:49.011Z,15.40
2022-08-19T03:39:55.801Z,15.20
2022-08-19T03:45:01.223Z,12.00
2022-08-19T03:50:07.340Z,12.20
2022-08-19T03:55:16.841Z,13.70
2022-08-19T04:00:22.461Z,15.10
2022-08-19T04:05:29.666Z,16.90
2022-08-19T04:10:37.408Z,11.60
2022-08-19T04:15:43.821Z,12.80
2022-08-19T04:20:50.260Z,16.40
2022-08-19T04:25:56.198Z,14.60
2022-08-19T04:31:02.234Z,14.90
2022-08-19T04:36:08.648Z,15.40
2022-08-19T04:41:32.053Z,15.50
2022-08-19T04:46:39.902Z,17.90
2022-08-19T04:51:56.907Z,21.30
2022-08-19T04:57:02.459Z,20.60
2022-08-19T05:02:08.985Z,16.60
2022-08-19T05:07:14.709Z,18.80
2022-08-19T05:12:20.297Z,18.30
2022-08-19T05:17:27.940Z,16.00
2022-08-19T05:22:35.619Z,21.80
2022-08-19T05:27:42.157Z,20.60
2022-08-19T05:32:47.672Z,21.10
2022-08-19T05:37:55.259Z,23.90
2022-08-19T05:43:04.695Z,19.80
2022-08-19T05:48:12.224Z,16.40
2022-08-19T05:53:17.988Z,23.30
2022-08-19T05:58:23.494Z,19.40
2022-08-19T06:03:35.119Z,18.40
2022-08-19T06:08:40.784Z,21.50
2022-08-19T06:13:48.193Z,15.10
2022-08-19T06:18:54.816Z,18.70
2022-08-19T06:24:03.571Z,18.20
2022-08-19T06:29:10.021Z,19.80
2022-08-19T06:34:30.575Z,24.80
2022-08-19T06:39:39.536Z,20.00
2022-08-19T06:44:48.247Z,19.00
2022-08-19T06:50:02.802Z,19.40
2022-08-19T06:55:09.505Z,24.70
2022-08-19T07:00:15.429Z,20.90
2022-08-19T07:05:20.835Z,20.90
2022-08-19T07:10:26.244Z,23.10
2022-08-19T07:15:31.989Z,21.60
2022-08-19T07:20:39.480Z,19.40
2022-08-19T07:25:52.909Z,14.70
2022-08-19T07:30:58.810Z,19.10
2022-08-19T07:36:04.498Z,20.10
2022-08-19T07:41:11.676Z,21.20
2022-08-19T07:46:17.657Z,18.20
2022-08-19T07:51:36.230Z,17.00
2022-08-19T07:56:42.243Z,16.10
2022-08-19T08:01:47.880Z,14.10
2022-08-19T08:07:11.298Z,16.10
2022-08-19T08:12:30.800Z,15.60
2022-08-19T08:17:48.715Z,16.30
2022-08-19T08:23:13.526Z,14.80
2022-08-19T08:28:19.342Z,14.30
2022-08-19T08:33:33.399Z,15.60
2022-08-19T08:38:41.547Z,15.80
2022-08-19T08:43:48.966Z,14.00
2022-08-19T08:49:00.370Z,12.60
2022-08-19T08:54:07.734Z,11.90
2022-08-19T08:59:18.909Z,16.10
2022-08-19T09:04:24.728Z,14.20
2022-08-19T09:09:33.594Z,13.00
2022-08-19T09:14:50.639Z,13.50
2022-08-19T09:19:58.275Z,17.20
2022-08-19T09:25:04.311Z,16.50
2022-08-19T09:30:12.741Z,16.50
2022-08-19T09:35:18.268Z,12.90
2022-08-19T09:40:24.771Z,13.00
2022-08-19T09:45:30.740Z,14.80
2022-08-19T09:50:51.865Z,14.10
2022-08-19T09:55:58.310Z,14.70
2022-08-19T10:01:04.660Z,16.50
2022-08-19T10:06:14.671Z,15.10
2022-08-19T10:11:28.152Z,13.70
2022-08-19T10:16:43.123Z,19.70
2022-08-19T10:21:48.663Z,18.90
2022-08-19T10:26:57.077Z,14.10
2022-08-19T10:32:09.669Z,13.60
2022-08-19T10:37:15.616Z,16.10
2022-08-19T10:42:32.046Z,11.90
2022-08-19T10:47:37.475Z,15.20
2022-08-19T10:52:49.082Z,9.20
2022-08-19T10:58:03.382Z,10.40
2022-08-19T11:03:09.591Z,9.80
2022-08-19T11:08:22.870Z,8.60
2022-08-19T11:13:29.641Z,9.70
2022-08-19T11:18:35.971Z,7.60
2022-08-19T11:23:42.096Z,7.50
2022-08-19T11:28:47.695Z,9.40
2022-08-19T11:33:53.612Z,7.40
2022-08-19T11:39:00.810Z,10.90
2022-08-19T11:44:08.747Z,12.00
2022-08-19T11:49:14.995Z,8.90
2022-08-19T11:54:20.449Z,13.50
2022-08-19T11:59:27.789Z,10.60
2022-08-19T12:04:33.290Z,13.60
2022-08-19T12:09:42.160Z,7.80
2022-08-19T12:14:48.821Z,13.00
2022-08-19T12:19:54.244Z,7.70
2022-08-19T12:24:59.618Z,7.90
2022-08-19T12:30:05.353Z,3.70
2022-08-19T12:35:12.405Z,7.80
2022-08-19T12:40:18.947Z,3.80
2022-08-19T12:45:24.732Z,10.60
2022-08-19T12:50:31.542Z,6.80
2022-08-19T12:55:37.072Z,6.50
2022-08-19T13:00:42.771Z,8.00
2022-08-19T13:05:48.233Z,4.50
2022-08-19T13:10:54.622Z,12.60
2022-08-19T13:16:28.516Z,9.30
2022-08-19T13:21:33.957Z,7.00
2022-08-19T13:30:10.744Z,8.00
2022-08-19T13:35:16.956Z,6.40
2022-08-19T13:40:24.846Z,9.30
2022-08-19T13:45:31.316Z,7.80
2022-08-19T13:50:39.784Z,10.10
2022-08-19T13:55:45.922Z,13.80
2022-08-19T14:03:24.854Z,12.60
2022-08-19T14:08:33.290Z,6.90
2022-08-19T14:13:38.698Z,7.70
2022-08-19T14:18:45.744Z,10.60
2022-08-19T14:23:51.787Z,7.40
2022-08-19T14:28:58.944Z,8.80
2022-08-19T14:39:08.027Z,9.50
2022-08-19T14:44:14.493Z,7.90
2022-08-19T14:49:20.456Z,10.50
2022-08-19T14:54:25.919Z,6.70
2022-08-19T14:59:36.571Z,7.40
2022-08-19T15:04:42.044Z,10.60
2022-08-19T15:09:47.625Z,9.00
2022-08-19T15:14:55.795Z,5.40
2022-08-19T15:20:02.975Z,7.10
2022-08-19T15:25:09.931Z,12.00
2022-08-19T15:30:23.903Z,13.30
2022-08-19T15:35:30.184Z,10.60
2022-08-19T15:40:36.136Z,16.60
2022-08-19T15:45:44.322Z,18.00
2022-08-19T15:50:52.874Z,13.90
2022-08-19T15:55:58.321Z,10.40
2022-08-19T16:01:23.580Z,16.60
2022-08-19T16:06:31.477Z,21.40
2022-08-19T16:11:39.950Z,15.10
2022-08-19T16:16:47.840Z,19.30
2022-08-19T16:21:54.305Z,19.90
2022-08-19T16:27:01.513Z,19.20
2022-08-19T16:32:10.005Z,17.80
2022-08-19T16:37:16.365Z,21.60
2022-08-19T16:42:23.948Z,19.30
2022-08-19T16:47:29.338Z,18.90
2022-08-19T16:52:36.909Z,26.20
2022-08-19T16:57:42.456Z,16.10
2022-08-19T17:02:47.886Z,16.10
2022-08-19T17:07:53.387Z,16.70
2022-08-19T17:12:58.826Z,22.00
2022-08-19T17:18:05.243Z,16.00
2022-08-19T17:23:14.514Z,21.70
2022-08-19T17:28:21.569Z,17.20
2022-08-19T17:33:28.306Z,17.50
2022-08-19T17:38:35.260Z,17.60
2022-08-19T17:43:43.575Z,17.90
2022-08-19T17:48:53.015Z,17.00
2022-08-19T17:53:59.455Z,19.60
2022-08-19T17:59:05.013Z,20.10
2022-08-19T18:04:13.388Z,25.20
2022-08-19T18:09:18.814Z,25.10
2022-08-19T18:14:33.485Z,27.00
2022-08-19T18:19:41.030Z,27.20
2022-08-19T18:24:47.939Z,22.30
2022-08-19T18:29:54.647Z,46.20
2022-08-19T18:35:00.989Z,112.70
2022-08-19T18:40:24.980Z,94.30
2022-08-19T18:45:48.221Z,47.00
2022-08-19T18:50:53.973Z,22.00
2022-08-19T18:56:00.305Z,27.60
2022-08-19T19:01:10.756Z,33.20
2022-08-19T19:06:19.067Z,32.70
2022-08-19T19:11:26.825Z,36.20
2022-08-19T19:16:33.234Z,24.00
2022-08-19T19:21:47.399Z,23.00
2022-08-19T19:26:53.774Z,22.50
2022-08-19T19:31:59.188Z,22.50
2022-08-19T19:37:04.669Z,20.90
2022-08-19T19:42:12.558Z,31.00
2022-08-19T19:47:28.560Z,21.20
2022-08-19T19:52:34.235Z,33.40
2022-08-19T19:57:40.759Z,31.00
2022-08-19T20:02:50.152Z,29.20
2022-08-19T20:08:14.244Z,18.80
2022-08-19T20:13:19.963Z,15.90
2022-08-19T20:18:26.241Z,18.10
2022-08-19T20:23:32.922Z,16.00
2022-08-19T20:28:39.170Z,16.50
2022-08-19T20:33:51.578Z,19.10
2022-08-19T20:38:57.545Z,16.60
2022-08-19T20:44:04.809Z,16.80
2022-08-19T20:49:10.598Z,16.40
2022-08-19T20:54:16.453Z,13.50
2022-08-19T20:59:22.386Z,13.60
2022-08-19T21:04:27.873Z,21.70
2022-08-19T21:09:33.487Z,18.30
2022-08-19T21:14:40.865Z,11.80
2022-08-19T21:19:46.561Z,17.50
2022-08-19T21:24:52.343Z,15.50
2022-08-19T21:29:58.095Z,20.50
2022-08-19T21:35:03.938Z,22.40
2022-08-19T21:40:11.215Z,15.00
2022-08-19T21:45:17.646Z,15.90
2022-08-19T21:50:28.182Z,13.90
2022-08-19T21:55:34.549Z,16.30
2022-08-19T22:00:40.726Z,13.20
2022-08-19T22:05:46.532Z,17.10
2022-08-19T22:10:52.512Z,13.20
2022-08-19T22:15:58.680Z,17.70
2022-08-19T22:21:06.409Z,12.60
2022-08-19T22:26:16.036Z,19.20
2022-08-19T22:31:21.634Z,14.90
2022-08-19T22:36:27.682Z,12.50
2022-08-19T22:41:34.312Z,13.40
2022-08-19T22:46:40.264Z,18.10
2022-08-19T22:52:03.353Z,15.70
2022-08-19T22:57:09.754Z,15.80
2022-08-19T23:02:19.254Z,15.70
2022-08-19T23:07:24.671Z,16.70
2022-08-19T23:12:32.312Z,14.60
2022-08-19T23:17:41.223Z,20.30
2022-08-19T23:22:48.965Z,18.10
2022-08-19T23:28:11.922Z,16.80
2022-08-19T23:33:21.541Z,12.10
2022-08-19T23:38:27.841Z,14.20
2022-08-19T23:43:34.539Z,10.80
2022-08-19T23:48:40.802Z,16.90
2022-08-19T23:53:46.338Z,12.80
2022-08-19T23:58:51.828Z,11.80
